createdAt,value
2023-07-11T00:00:02.465Z,22
2023-07-11T00:01:01.414Z,22
2023-07-11T00:02:02.175Z,22
2023-07-11T00:03:01.935Z,22
2023-07-11T00:04:01.901Z,22.2
2023-07-11T00:05:01.814Z,22.4
2023-07-11T00:06:01.862Z,22.1
2023-07-11T00:07:01.716Z,22.1
2023-07-11T00:08:01.729Z,22.2
2023-07-11T00:09:01.592Z,22.2
2023-07-11T00:10:01.584Z,22.3
2023-07-11T00:11:01.510Z,21.9
2023-07-11T00:12:01.497Z,22.1
2023-07-11T00:13:01.322Z,22.2
2023-07-11T00:14:01.334Z,21.9
2023-07-11T00:15:02.326Z,22.3
2023-07-11T00:16:02.318Z,22.2
2023-07-11T00:17:01.393Z,22.2
2023-07-11T00:18:02.327Z,22.1
2023-07-11T00:19:02.203Z,22
2023-07-11T00:20:02.259Z,22.1
2023-07-11T00:21:02.110Z,22.1
2023-07-11T00:22:02.188Z,21.9
2023-07-11T00:23:02.040Z,22
2023-07-11T00:24:02.097Z,22
2023-07-11T00:25:01.913Z,22
2023-07-11T00:26:01.824Z,22.1
2023-07-11T00:27:01.880Z,22.1
2023-07-11T00:28:01.892Z,21.9
2023-07-11T00:29:01.754Z,21.7
2023-07-11T00:30:01.801Z,21.6
2023-07-11T00:31:01.637Z,21.6
2023-07-11T00:32:01.771Z,21.6
2023-07-11T00:33:01.788Z,21.7
2023-07-11T00:34:01.563Z,21.7
2023-07-11T00:35:01.607Z,21.9
2023-07-11T00:36:01.476Z,21.6
2023-07-11T00:37:01.480Z,21.5
2023-07-11T00:38:01.356Z,21.7
2023-07-11T00:39:01.421Z,21.9
2023-07-11T00:40:01.265Z,21.7
2023-07-11T00:41:02.331Z,21.9
2023-07-11T00:42:02.177Z,22
2023-07-11T00:43:02.231Z,22
2023-07-11T00:44:02.135Z,21.9
2023-07-11T00:45:02.120Z,21.9
2023-07-11T00:46:01.977Z,22
2023-07-11T00:47:01.831Z,21.9
2023-07-11T00:48:01.931Z,21.8
2023-07-11T00:49:01.774Z,21.8
2023-07-11T00:50:01.889Z,21.4
2023-07-11T00:51:01.798Z,21.7
2023-07-11T00:52:01.846Z,21.5
2023-07-11T00:53:01.730Z,21.6
2023-07-11T00:54:01.795Z,21.5
2023-07-11T00:55:01.705Z,21.5
2023-07-11T00:56:01.745Z,21.7
2023-07-11T00:57:01.634Z,21.8
2023-07-11T00:58:01.769Z,21.6
2023-07-11T00:59:01.615Z,21.4
2023-07-11T01:00:02.656Z,21.6
2023-07-11T01:01:01.466Z,21.5
2023-07-11T01:02:01.428Z,21.6
2023-07-11T01:03:01.459Z,21.7
2023-07-11T01:04:01.476Z,21.7
2023-07-11T01:05:01.470Z,21.7
2023-07-11T01:06:01.350Z,21.5
2023-07-11T01:07:01.400Z,21.5
2023-07-11T01:08:02.337Z,21.6
2023-07-11T01:09:02.226Z,21.5
2023-07-11T01:10:02.298Z,21.6
2023-07-11T01:11:02.137Z,21.7
2023-07-11T01:12:02.192Z,21.7
2023-07-11T01:13:02.035Z,22.1
2023-07-11T01:14:02.157Z,22
2023-07-11T01:15:02.057Z,21.9
2023-07-11T01:16:02.001Z,22
2023-07-11T01:17:01.560Z,22.1
2023-07-11T01:18:01.666Z,21.7
2023-07-11T01:19:01.560Z,21.7
2023-07-11T01:20:01.604Z,21.7
2023-07-11T01:21:01.473Z,21.7
2023-07-11T01:22:01.537Z,21.7
2023-07-11T01:23:01.471Z,21.5
2023-07-11T01:24:01.595Z,21.5
2023-07-11T01:25:01.503Z,21.5
2023-07-11T01:26:01.567Z,21.5
2023-07-11T01:27:01.480Z,21.6
2023-07-11T01:28:01.472Z,21.7
2023-07-11T01:29:01.379Z,21.5
2023-07-11T01:30:01.423Z,21.4
2023-07-11T01:31:01.328Z,21.2
2023-07-11T01:32:01.536Z,21.2
2023-07-11T01:33:01.605Z,21.1
2023-07-11T01:34:01.489Z,21.3
2023-07-11T01:35:01.559Z,21.5
2023-07-11T01:36:01.514Z,21.4
2023-07-11T01:37:01.471Z,21.5
2023-07-11T01:38:01.356Z,21.2
2023-07-11T01:39:01.360Z,21.3
2023-07-11T01:40:01.288Z,21.4
2023-07-11T01:41:02.322Z,21.3
2023-07-11T01:42:02.245Z,21.5
2023-07-11T01:43:02.266Z,21.2
2023-07-11T01:44:02.198Z,21.2
2023-07-11T01:45:02.252Z,21.2
2023-07-11T01:46:02.178Z,21.3
2023-07-11T01:47:02.182Z,21.4
2023-07-11T01:48:02.264Z,21.3
2023-07-11T01:49:02.100Z,21
2023-07-11T01:50:02.209Z,21.2
2023-07-11T01:51:02.034Z,21.1
2023-07-11T01:52:02.094Z,21
2023-07-11T01:53:01.937Z,21
2023-07-11T01:54:01.885Z,21
2023-07-11T01:55:01.949Z,21.1
2023-07-11T01:56:01.864Z,21.1
2023-07-11T01:57:01.831Z,21.1
2023-07-11T01:58:01.849Z,21.1
2023-07-11T01:59:01.757Z,20.9
2023-07-11T02:00:02.954Z,21
2023-07-11T02:01:01.728Z,20.9
2023-07-11T02:02:01.606Z,20.8
2023-07-11T02:03:01.819Z,20.7
2023-07-11T02:04:01.831Z,20.9
2023-07-11T02:05:01.772Z,20.9
2023-07-11T02:06:01.853Z,20.8
2023-07-11T02:07:01.714Z,21.1
2023-07-11T02:08:02.154Z,21
2023-07-11T02:09:01.838Z,21
2023-07-11T02:10:01.841Z,20.9
2023-07-11T02:11:01.909Z,21
2023-07-11T02:12:01.753Z,20.8
2023-07-11T02:13:01.675Z,20.5
2023-07-11T02:14:01.697Z,20.5
2023-07-11T02:15:01.581Z,20.4
2023-07-11T02:16:01.623Z,20.5
2023-07-11T02:17:01.536Z,20.8
2023-07-11T02:18:01.700Z,21.1
2023-07-11T02:19:01.731Z,21.1
2023-07-11T02:20:01.606Z,20.9
2023-07-11T02:21:01.590Z,20.9
2023-07-11T02:22:01.451Z,20.8
2023-07-11T02:23:01.530Z,20.8
2023-07-11T02:24:01.360Z,20.7
2023-07-11T02:25:01.426Z,20.7
2023-07-11T02:26:01.326Z,20.8
2023-07-11T02:27:02.312Z,20.8
2023-07-11T02:28:02.192Z,20.6
2023-07-11T02:29:02.253Z,20.7
2023-07-11T02:30:02.129Z,20.6
2023-07-11T02:31:02.129Z,20.6
2023-07-11T02:32:02.004Z,20.8
2023-07-11T02:33:02.077Z,20.3
2023-07-11T02:34:01.855Z,20.4
2023-07-11T02:35:01.824Z,20.6
2023-07-11T02:36:01.895Z,20.6
2023-07-11T02:37:01.886Z,20.4
2023-07-11T02:38:01.813Z,20.5
2023-07-11T02:39:01.823Z,20.6
2023-07-11T02:40:01.667Z,20.5
2023-07-11T02:41:01.690Z,20.5
2023-07-11T02:42:01.570Z,20.7
2023-07-11T02:43:01.669Z,20.3
2023-07-11T02:44:01.483Z,20.3
2023-07-11T02:45:01.521Z,20.6
2023-07-11T02:46:01.399Z,20.1
2023-07-11T02:47:02.003Z,20.4
2023-07-11T02:48:02.117Z,20.3
2023-07-11T02:49:01.989Z,20
2023-07-11T02:50:01.956Z,20.3
2023-07-11T02:51:01.956Z,20.3
2023-07-11T02:52:01.820Z,20.1
2023-07-11T02:53:01.794Z,20.3
2023-07-11T02:54:01.806Z,20.1
2023-07-11T02:55:01.776Z,20.3
2023-07-11T02:56:01.884Z,20.4
2023-07-11T02:57:01.758Z,20.2
2023-07-11T02:58:01.703Z,20.1
2023-07-11T02:59:01.606Z,20.3
2023-07-11T03:00:02.822Z,20.3
2023-07-11T03:01:01.722Z,20.3
2023-07-11T03:02:01.807Z,20.6
2023-07-11T03:03:01.841Z,20.7
2023-07-11T03:04:01.722Z,20.5
2023-07-11T03:05:01.747Z,20.3
2023-07-11T03:06:01.666Z,20.3
2023-07-11T03:07:01.713Z,20.3
2023-07-11T03:08:01.579Z,20.6
2023-07-11T03:09:01.650Z,20.3
2023-07-11T03:10:01.462Z,20.4
2023-07-11T03:11:01.470Z,20.4
2023-07-11T03:12:01.379Z,20.3
2023-07-11T03:13:01.384Z,20.4
2023-07-11T03:14:02.337Z,20.3
2023-07-11T03:15:04.476Z,20.2
2023-07-11T03:16:01.599Z,20
2023-07-11T03:17:01.895Z,20.2
2023-07-11T03:18:01.877Z,20.2
2023-07-11T03:19:01.700Z,20.4
2023-07-11T03:20:01.780Z,20.4
2023-07-11T03:21:01.571Z,20
2023-07-11T03:22:01.585Z,19.8
2023-07-11T03:23:01.570Z,20
2023-07-11T03:24:01.606Z,20.1
2023-07-11T03:25:01.450Z,20
2023-07-11T03:26:01.448Z,20.1
2023-07-11T03:27:02.053Z,20.3
2023-07-11T03:28:01.952Z,19.8
2023-07-11T03:29:01.951Z,19.9
2023-07-11T03:30:01.883Z,20.4
2023-07-11T03:31:01.868Z,20.3
2023-07-11T03:32:01.909Z,19.9
2023-07-11T03:33:01.946Z,20.4
2023-07-11T03:34:01.928Z,20.2
2023-07-11T03:35:03.600Z,19.9
2023-07-11T03:36:01.780Z,20.1
2023-07-11T03:37:01.866Z,20.1
2023-07-11T03:38:01.537Z,20.3
2023-07-11T03:39:01.557Z,20
2023-07-11T03:40:01.498Z,19.9
2023-07-11T03:41:01.458Z,20.1
2023-07-11T03:42:01.351Z,20.2
2023-07-11T03:43:01.425Z,20.1
2023-07-11T03:44:01.299Z,19.9
2023-07-11T03:45:01.487Z,19.7
2023-07-11T03:46:01.360Z,19.7
2023-07-11T03:47:01.476Z,19.9
2023-07-11T03:48:01.509Z,19.9
2023-07-11T03:49:01.323Z,19.6
2023-07-11T03:50:01.374Z,19.9
2023-07-11T03:51:02.322Z,19.9
2023-07-11T03:52:02.162Z,20.3
2023-07-11T03:53:02.210Z,20.1
2023-07-11T03:54:02.101Z,20
2023-07-11T03:55:02.155Z,20.1
2023-07-11T03:56:02.016Z,20.2
2023-07-11T03:57:02.089Z,20.2
2023-07-11T03:58:01.948Z,20.3
2023-07-11T03:59:01.874Z,19.9
2023-07-11T04:00:02.895Z,20.1
2023-07-11T04:01:01.781Z,20.3
2023-07-11T04:02:02.013Z,20.3
2023-07-11T04:03:02.106Z,20.5
2023-07-11T04:04:01.347Z,20.4
2023-07-11T04:05:02.373Z,20.3
2023-07-11T04:06:02.241Z,20.2
2023-07-11T04:07:02.304Z,20.8
2023-07-11T04:08:02.231Z,20.6
2023-07-11T04:09:02.250Z,20.1
2023-07-11T04:10:02.132Z,20.3
2023-07-11T04:11:02.548Z,20.1
2023-07-11T04:12:02.186Z,20.5
2023-07-11T04:13:02.220Z,20.7
2023-07-11T04:14:02.113Z,20.5
2023-07-11T04:15:02.178Z,20.3
2023-07-11T04:16:02.030Z,20.2
2023-07-11T04:17:01.657Z,20.5
2023-07-11T04:18:01.740Z,20.4
2023-07-11T04:19:01.643Z,20.1
2023-07-11T04:20:01.582Z,20.3
2023-07-11T04:21:01.454Z,20.3
2023-07-11T04:22:01.548Z,20.4
2023-07-11T04:23:01.353Z,20.5
2023-07-11T04:24:01.451Z,20.6
2023-07-11T04:25:01.378Z,20.8
2023-07-11T04:26:02.343Z,20.6
2023-07-11T04:27:02.256Z,20.6
2023-07-11T04:28:02.278Z,20.9
2023-07-11T04:29:02.109Z,20.8
2023-07-11T04:30:02.159Z,20.4
2023-07-11T04:31:02.037Z,20.5
2023-07-11T04:32:02.234Z,20.9
2023-07-11T04:33:02.358Z,20.4
2023-07-11T04:34:02.185Z,20.5
2023-07-11T04:35:02.200Z,20.4
2023-07-11T04:36:02.184Z,20.6
2023-07-11T04:37:02.178Z,20.7
2023-07-11T04:38:02.086Z,20.6
2023-07-11T04:39:02.130Z,20.5
2023-07-11T04:40:01.935Z,20.8
2023-07-11T04:41:01.954Z,20.8
2023-07-11T04:42:01.852Z,20.5
2023-07-11T04:43:01.868Z,20.1
2023-07-11T04:44:01.948Z,20.8
2023-07-11T04:45:01.768Z,20.9
2023-07-11T04:46:01.809Z,21
2023-07-11T04:47:01.629Z,21
2023-07-11T04:48:01.548Z,21
2023-07-11T04:49:01.388Z,20.4
2023-07-11T04:50:01.412Z,20.7
2023-07-11T04:51:01.328Z,20.4
2023-07-11T04:52:02.304Z,20.6
2023-07-11T04:53:02.244Z,20.9
2023-07-11T04:54:02.299Z,21
2023-07-11T04:55:02.144Z,21
2023-07-11T04:56:02.162Z,20.8
2023-07-11T04:57:02.057Z,20.6
2023-07-11T04:58:02.090Z,20.4
2023-07-11T04:59:02.039Z,20.6
2023-07-11T05:00:02.033Z,20.6
2023-07-11T05:01:02.045Z,20.6
2023-07-11T05:02:01.657Z,20.9
2023-07-11T05:03:01.750Z,20.5
2023-07-11T05:04:01.599Z,20.6
2023-07-11T05:05:01.626Z,20.8
2023-07-11T05:06:01.526Z,21
2023-07-11T05:07:01.620Z,21.1
2023-07-11T05:08:01.476Z,21.1
2023-07-11T05:09:01.486Z,20.8
2023-07-11T05:10:01.363Z,21
2023-07-11T05:11:01.467Z,21
2023-07-11T05:12:01.292Z,20.5
2023-07-11T05:13:02.332Z,20.6
2023-07-11T05:14:02.266Z,21
2023-07-11T05:15:02.313Z,20.9
2023-07-11T05:16:02.313Z,20.8
2023-07-11T05:17:02.042Z,21.1
2023-07-11T05:18:02.074Z,21.2
2023-07-11T05:19:01.823Z,20.8
2023-07-11T05:20:01.818Z,20.9
2023-07-11T05:21:01.821Z,20.6
2023-07-11T05:22:01.667Z,21.1
2023-07-11T05:23:01.752Z,21.4
2023-07-11T05:24:01.632Z,21.3
2023-07-11T05:25:01.611Z,21.3
2023-07-11T05:26:01.563Z,21.3
2023-07-11T05:27:01.606Z,21.6
2023-07-11T05:28:01.458Z,21.5
2023-07-11T05:29:01.488Z,21.4
2023-07-11T05:30:01.358Z,21.5
2023-07-11T05:31:01.327Z,21.1
2023-07-11T05:32:02.273Z,20.8
2023-07-11T05:33:02.187Z,21.2
2023-07-11T05:34:02.139Z,21.2
2023-07-11T05:35:01.976Z,21.6
2023-07-11T05:36:01.895Z,21
2023-07-11T05:37:02.016Z,21.7
2023-07-11T05:38:01.870Z,21.7
2023-07-11T05:39:01.881Z,21.2
2023-07-11T05:40:01.951Z,21.5
2023-07-11T05:41:01.810Z,21
2023-07-11T05:42:01.717Z,21.5
2023-07-11T05:43:02.269Z,21.4
2023-07-11T05:44:02.167Z,21.8
2023-07-11T05:45:02.223Z,21.7
2023-07-11T05:46:02.120Z,21.9
2023-07-11T05:47:01.950Z,22
2023-07-11T05:48:02.040Z,21.6
2023-07-11T05:49:01.830Z,21.9
2023-07-11T05:50:01.891Z,21.7
2023-07-11T05:51:01.920Z,22
2023-07-11T05:52:01.767Z,21.5
2023-07-11T05:53:01.720Z,22
2023-07-11T05:54:01.642Z,21.8
2023-07-11T05:55:01.728Z,22
2023-07-11T05:56:01.649Z,21.8
2023-07-11T05:57:01.707Z,21.7
2023-07-11T05:58:01.538Z,21.7
2023-07-11T05:59:01.577Z,21.8
2023-07-11T06:00:02.645Z,21.9
2023-07-11T06:01:01.507Z,22
2023-07-11T06:02:01.365Z,22
2023-07-11T06:03:01.435Z,22.1
2023-07-11T06:04:01.323Z,21.9
2023-07-11T06:05:01.336Z,22.2
2023-07-11T06:06:02.293Z,22.2
2023-07-11T06:07:02.209Z,22.3
2023-07-11T06:08:02.171Z,22.2
2023-07-11T06:09:02.075Z,22.1
2023-07-11T06:10:02.112Z,22.1
2023-07-11T06:11:01.920Z,21.7
2023-07-11T06:12:01.899Z,21.7
2023-07-11T06:13:01.925Z,21.9
2023-07-11T06:14:01.808Z,22.2
2023-07-11T06:15:01.754Z,22.2
2023-07-11T06:16:01.818Z,22.4
2023-07-11T06:17:01.445Z,22.6
2023-07-11T06:18:01.494Z,22.5
2023-07-11T06:19:01.366Z,22
2023-07-11T06:20:01.317Z,21.6
2023-07-11T06:21:01.283Z,22.1
2023-07-11T06:22:02.312Z,21.9
2023-07-11T06:23:02.224Z,21.4
2023-07-11T06:24:02.237Z,21.9
2023-07-11T06:25:02.156Z,22.1
2023-07-11T06:26:02.215Z,22.5
2023-07-11T06:27:02.067Z,22.2
2023-07-11T06:28:02.136Z,22.4
2023-07-11T06:29:01.927Z,22.4
2023-07-11T06:30:01.923Z,22.6
2023-07-11T06:31:01.974Z,22.2
2023-07-11T06:32:02.220Z,22.3
2023-07-11T06:33:02.108Z,22.3
2023-07-11T06:34:02.166Z,22.2
2023-07-11T06:35:02.030Z,22.6
2023-07-11T06:36:02.079Z,22.7
2023-07-11T06:37:01.906Z,22.1
2023-07-11T06:38:01.848Z,22.3
2023-07-11T06:39:01.889Z,22.6
2023-07-11T06:40:01.763Z,21.9
2023-07-11T06:41:01.865Z,22.4
2023-07-11T06:42:01.673Z,22.3
2023-07-11T06:43:02.104Z,22.6
2023-07-11T06:44:01.726Z,22.4
2023-07-11T06:45:01.763Z,22.4
2023-07-11T06:46:01.655Z,22.5
2023-07-11T06:47:01.609Z,22.6
2023-07-11T06:48:01.716Z,22.8
2023-07-11T06:49:01.502Z,22.6
2023-07-11T06:50:01.564Z,22.9
2023-07-11T06:51:01.364Z,23
2023-07-11T06:52:01.409Z,22.8
2023-07-11T06:53:01.290Z,22.6
2023-07-11T06:54:02.311Z,22.6
2023-07-11T06:55:02.222Z,22.8
2023-07-11T06:56:02.644Z,22.6
2023-07-11T06:57:01.292Z,22.8
2023-07-11T06:58:02.352Z,23.1
2023-07-11T06:59:02.202Z,23
2023-07-11T07:00:02.601Z,22.6
2023-07-11T07:01:01.435Z,22.6
2023-07-11T07:02:01.420Z,23.3
2023-07-11T07:03:01.497Z,23.2
2023-07-11T07:04:02.959Z,23.1
2023-07-11T07:05:02.002Z,22.7
2023-07-11T07:06:01.659Z,22.6
2023-07-11T07:07:01.581Z,23
2023-07-11T07:08:09.250Z,22.5
2023-07-11T07:09:02.033Z,22.4
2023-07-11T07:10:01.994Z,22.4
2023-07-11T07:11:01.925Z,22.7
2023-07-11T07:12:01.863Z,22.6
2023-07-11T07:13:01.834Z,22.2
2023-07-11T07:14:05.860Z,22.3
2023-07-11T07:15:01.663Z,22.8
2023-07-11T07:16:01.709Z,22.8
2023-07-11T07:17:01.433Z,23
2023-07-11T07:18:01.424Z,23.1
2023-07-11T07:19:02.361Z,23
2023-07-11T07:20:02.256Z,22.8
2023-07-11T07:21:02.246Z,23
2023-07-11T07:22:02.142Z,23.2
2023-07-11T07:23:02.220Z,23.2
2023-07-11T07:24:02.067Z,23.5
2023-07-11T07:25:09.239Z,23.4
2023-07-11T07:26:01.720Z,22.8
2023-07-11T07:27:01.716Z,23.2
2023-07-11T07:28:01.614Z,23.5
2023-07-11T07:29:01.647Z,22.9
2023-07-11T07:30:01.559Z,22.9
2023-07-11T07:31:01.687Z,23.2
2023-07-11T07:32:02.035Z,23.4
2023-07-11T07:33:02.029Z,23.5
2023-07-11T07:34:01.985Z,23.4
2023-07-11T07:35:01.881Z,23.8
2023-07-11T07:36:01.861Z,23.9
2023-07-11T07:37:01.832Z,24.1
2023-07-11T07:38:01.708Z,23.8
2023-07-11T07:39:01.755Z,24.1
2023-07-11T07:40:01.591Z,24.1
2023-07-11T07:41:01.667Z,23.9
2023-07-11T07:42:01.492Z,23.8
2023-07-11T07:43:02.046Z,23.9
2023-07-11T07:44:01.734Z,24.1
2023-07-11T07:45:01.742Z,24.1
2023-07-11T07:46:01.679Z,24
2023-07-11T07:47:01.948Z,24
2023-07-11T07:48:01.970Z,24.2
2023-07-11T07:49:01.788Z,24.3
2023-07-11T07:50:01.801Z,24.5
2023-07-11T07:51:01.830Z,24.6
2023-07-11T07:52:01.719Z,24.4
2023-07-11T07:53:01.778Z,24.3
2023-07-11T07:54:01.649Z,24.3
2023-07-11T07:55:01.700Z,24.2
2023-07-11T07:56:01.562Z,24.2
2023-07-11T07:57:01.596Z,24.2
2023-07-11T07:58:01.470Z,24.6
2023-07-11T07:59:01.571Z,24.5
2023-07-11T08:00:01.663Z,23.8
2023-07-11T08:01:01.745Z,24.4
2023-07-11T08:02:01.522Z,24.5
2023-07-11T08:03:01.765Z,24.7
2023-07-11T08:04:01.658Z,24.3
2023-07-11T08:05:01.710Z,24.3
2023-07-11T08:06:13.946Z,24.3
2023-07-11T08:07:01.358Z,24.4
2023-07-11T08:08:01.479Z,24.2
2023-07-11T08:09:01.279Z,24.4
2023-07-11T08:10:02.360Z,24.6
2023-07-11T08:11:02.160Z,24.2
2023-07-11T08:12:02.231Z,24.5
2023-07-11T08:13:02.085Z,24.8
2023-07-11T08:14:02.139Z,24.9
2023-07-11T08:15:02.047Z,24.4
2023-07-11T08:16:06.733Z,24
2023-07-11T08:17:02.263Z,23.6
2023-07-11T08:18:02.225Z,23.7
2023-07-11T08:19:02.117Z,23.6
2023-07-11T08:20:02.179Z,24
2023-07-11T08:21:02.022Z,23.9
2023-07-11T08:22:02.036Z,23.7
2023-07-11T08:23:01.939Z,23.7
2023-07-11T08:24:01.919Z,23.5
2023-07-11T08:25:01.929Z,23.7
2023-07-11T08:26:01.878Z,24.3
2023-07-11T08:27:01.852Z,24.3
2023-07-11T08:28:01.910Z,24.7
2023-07-11T08:29:07.681Z,24.5
2023-07-11T08:30:01.890Z,24.6
2023-07-11T08:31:01.949Z,24.6
2023-07-11T08:32:01.593Z,24.6
2023-07-11T08:33:01.667Z,24.6
2023-07-11T08:34:01.535Z,24.3
2023-07-11T08:35:01.531Z,24.4
2023-07-11T08:36:01.411Z,24.6
2023-07-11T08:37:01.377Z,24.9
2023-07-11T08:38:02.437Z,24.9
2023-07-11T08:39:01.416Z,24.9
2023-07-11T08:40:01.445Z,25
2023-07-11T08:41:01.324Z,25.4
2023-07-11T08:42:01.402Z,25.2
2023-07-11T08:43:02.309Z,24.9
2023-07-11T08:44:02.263Z,24.9
2023-07-11T08:45:04.995Z,25.3
2023-07-11T08:46:12.268Z,25.3
2023-07-11T08:47:01.407Z,25.4
2023-07-11T08:48:01.402Z,25.4
2023-07-11T08:49:02.299Z,24.9
2023-07-11T08:50:02.238Z,25.3
2023-07-11T08:51:02.261Z,25.4
2023-07-11T08:52:02.094Z,25
2023-07-11T08:53:02.171Z,25.5
2023-07-11T08:54:02.031Z,25.6
2023-07-11T08:55:02.066Z,25.4
2023-07-11T08:56:01.950Z,25.9
2023-07-11T08:57:01.867Z,26.2
2023-07-11T08:58:01.930Z,26.2
2023-07-11T08:59:01.780Z,26.2
2023-07-11T09:00:01.975Z,25.7
2023-07-11T09:01:02.046Z,25.6
2023-07-11T09:02:02.327Z,25.7
2023-07-11T09:03:02.116Z,25.9
2023-07-11T09:04:02.274Z,26.2
2023-07-11T09:05:02.162Z,26.4
2023-07-11T09:06:02.238Z,26.6
2023-07-11T09:07:02.292Z,26.5
2023-07-11T09:08:02.269Z,26.4
2023-07-11T09:09:02.160Z,26.5
2023-07-11T09:10:02.220Z,26.5
2023-07-11T09:11:02.087Z,26.7
2023-07-11T09:12:02.108Z,26.4
2023-07-11T09:13:10.433Z,26.6
2023-07-11T09:14:02.293Z,26.3
2023-07-11T09:15:02.273Z,26
2023-07-11T09:16:02.193Z,25.7
2023-07-11T09:17:02.172Z,26.2
2023-07-11T09:18:02.220Z,26.2
2023-07-11T09:19:02.064Z,26.5
2023-07-11T09:20:02.118Z,26.7
2023-07-11T09:21:01.983Z,26.6
2023-07-11T09:22:01.955Z,26.4
2023-07-11T09:23:01.999Z,26.2
2023-07-11T09:24:12.458Z,26.4
2023-07-11T09:25:01.406Z,26.9
2023-07-11T09:26:01.381Z,27.1
2023-07-11T09:27:02.331Z,27
2023-07-11T09:28:02.172Z,27.1
2023-07-11T09:29:02.172Z,26.8
2023-07-11T09:30:02.075Z,26
2023-07-11T09:31:02.103Z,26.6
2023-07-11T09:32:02.168Z,26.8
2023-07-11T09:33:02.287Z,26.8
2023-07-11T09:34:02.280Z,27
2023-07-11T09:35:02.205Z,27.1
2023-07-11T09:36:02.077Z,27.2
2023-07-11T09:37:02.024Z,27.3
2023-07-11T09:38:01.977Z,27.1
2023-07-11T09:39:02.050Z,27.2
2023-07-11T09:40:01.899Z,27
2023-07-11T09:41:01.894Z,26.9
2023-07-11T09:42:01.901Z,27
2023-07-11T09:43:01.759Z,26.8
2023-07-11T09:44:01.750Z,27.3
2023-07-11T09:45:01.599Z,27.3
2023-07-11T09:46:01.566Z,27.4
2023-07-11T09:47:02.279Z,26.9
2023-07-11T09:48:02.200Z,27.4
2023-07-11T09:49:02.257Z,27.5
2023-07-11T09:50:02.113Z,27.6
2023-07-11T09:51:12.581Z,27.7
2023-07-11T09:52:01.696Z,27.7
2023-07-11T09:53:01.722Z,27.6
2023-07-11T09:54:01.569Z,27.8
2023-07-11T09:55:08.620Z,27.3
2023-07-11T09:56:11.004Z,27.2
2023-07-11T09:57:01.676Z,27.1
2023-07-11T09:58:01.504Z,28
2023-07-11T09:59:01.421Z,28.1
2023-07-11T10:00:12.181Z,28.2
2023-07-11T10:01:02.202Z,27.8
2023-07-11T10:02:02.348Z,27.7
2023-07-11T10:03:02.261Z,28
2023-07-11T10:04:02.196Z,27.9
2023-07-11T10:05:02.371Z,28.2
2023-07-11T10:06:02.251Z,28.4
2023-07-11T10:07:02.318Z,28.6
2023-07-11T10:08:01.781Z,28.4
2023-07-11T10:09:01.623Z,28.5
2023-07-11T10:10:01.550Z,28.3
2023-07-11T10:11:01.518Z,27.9
2023-07-11T10:12:01.411Z,27.9
2023-07-11T10:13:01.680Z,28.5
2023-07-11T10:14:02.080Z,28.3
2023-07-11T10:15:01.972Z,27.8
2023-07-11T10:16:01.924Z,28.5
2023-07-11T10:17:01.550Z,27.6
2023-07-11T10:18:01.554Z,28.1
2023-07-11T10:19:01.493Z,28.8
2023-07-11T10:20:12.496Z,29.1
2023-07-11T10:21:01.725Z,29.2
2023-07-11T10:22:01.741Z,29.3
2023-07-11T10:23:01.539Z,29.4
2023-07-11T10:24:01.566Z,29.4
2023-07-11T10:25:01.425Z,29.1
2023-07-11T10:26:01.381Z,29.2
2023-07-11T10:27:01.306Z,28.7
2023-07-11T10:28:02.357Z,29.2
2023-07-11T10:29:06.280Z,29.5
2023-07-11T10:30:01.541Z,29.5
2023-07-11T10:31:01.555Z,29.6
2023-07-11T10:32:01.388Z,29.2
2023-07-11T10:33:12.700Z,29
2023-07-11T10:34:01.887Z,29
2023-07-11T10:35:01.864Z,29.4
2023-07-11T10:36:01.862Z,29.6
2023-07-11T10:37:01.728Z,29.5
2023-07-11T10:38:01.820Z,29.7
2023-07-11T10:39:01.680Z,29.7
2023-07-11T10:40:01.698Z,29
2023-07-11T10:41:01.539Z,29.2
2023-07-11T10:42:01.510Z,29.4
2023-07-11T10:43:01.358Z,29.3
2023-07-11T10:44:01.419Z,29.4
2023-07-11T10:45:02.372Z,29.8
2023-07-11T10:46:02.018Z,29.3
2023-07-11T10:47:02.100Z,28.8
2023-07-11T10:48:01.994Z,29.2
2023-07-11T10:49:01.840Z,29
2023-07-11T10:50:01.872Z,28.9
2023-07-11T10:51:01.774Z,29
2023-07-11T10:52:01.736Z,29.3
2023-07-11T10:53:01.782Z,29.1
2023-07-11T10:54:01.656Z,29.1
2023-07-11T10:55:01.673Z,29.2
2023-07-11T10:56:01.532Z,29.5
2023-07-11T10:57:01.578Z,29.3
2023-07-11T10:58:01.417Z,29.4
2023-07-11T10:59:01.431Z,29.8
2023-07-11T11:00:02.979Z,29.7
2023-07-11T11:01:01.957Z,29.8
2023-07-11T11:02:01.955Z,30.1
2023-07-11T11:03:01.882Z,30.4
2023-07-11T11:04:01.942Z,30.3
2023-07-11T11:05:01.894Z,30.3
2023-07-11T11:06:01.820Z,30.6
2023-07-11T11:07:01.954Z,29.8
2023-07-11T11:08:01.962Z,30.3
2023-07-11T11:09:01.885Z,30.6
2023-07-11T11:10:01.845Z,29.7
2023-07-11T11:11:01.846Z,30.3
2023-07-11T11:12:01.642Z,29.9
2023-07-11T11:13:01.630Z,30.6
2023-07-11T11:14:01.581Z,30.5
2023-07-11T11:15:01.649Z,29.7
2023-07-11T11:16:02.304Z,29.9
2023-07-11T11:17:02.196Z,30.2
2023-07-11T11:18:02.219Z,30.5
2023-07-11T11:19:02.883Z,30.8
2023-07-11T11:20:01.712Z,30.9
2023-07-11T11:21:13.184Z,30.2
2023-07-11T11:22:01.760Z,30
2023-07-11T11:23:01.662Z,29.8
2023-07-11T11:24:01.682Z,28.7
2023-07-11T11:25:01.601Z,28.7
2023-07-11T11:26:01.918Z,29.4
2023-07-11T11:27:01.998Z,29.9
2023-07-11T11:28:01.844Z,30.1
2023-07-11T11:29:01.813Z,30.2
2023-07-11T11:30:02.015Z,30.5
2023-07-11T11:31:01.720Z,30.5
2023-07-11T11:32:01.722Z,30.4
2023-07-11T11:33:01.622Z,30.2
2023-07-11T11:34:01.578Z,29.9
2023-07-11T11:35:15.035Z,30.5
2023-07-11T11:36:01.617Z,30.6
2023-07-11T11:37:01.686Z,30.5
2023-07-11T11:38:01.706Z,30.6
2023-07-11T11:39:01.603Z,30.2
2023-07-11T11:40:01.448Z,30
2023-07-11T11:41:01.456Z,30.3
2023-07-11T11:42:01.299Z,30.5
2023-07-11T11:43:02.539Z,30.2
2023-07-11T11:45:43.995Z,30.3
2023-07-11T11:46:28.858Z,30.4
2023-07-11T11:47:04.541Z,30.9
2023-07-11T11:52:02.156Z,31.2
2023-07-11T11:53:02.157Z,31.2
2023-07-11T11:54:02.140Z,30.5
2023-07-11T11:55:02.009Z,30.8
2023-07-11T11:56:14.946Z,31.2
2023-07-11T11:57:01.787Z,30.9
2023-07-11T11:58:01.825Z,31.1
2023-07-11T11:59:01.722Z,30.7
2023-07-11T12:00:01.690Z,31.2
2023-07-11T12:01:01.545Z,31.2
2023-07-11T12:02:01.614Z,30.7
2023-07-11T12:03:01.463Z,30.3
2023-07-11T12:04:01.696Z,30.3
2023-07-11T12:05:01.825Z,30.9
2023-07-11T12:06:01.561Z,31.4
2023-07-11T12:07:01.633Z,31.3
2023-07-11T12:08:01.500Z,31.2
2023-07-11T12:09:01.542Z,31.2
2023-07-11T12:10:01.450Z,31.4
2023-07-11T12:11:01.377Z,31
2023-07-11T12:12:01.301Z,31.5
2023-07-11T12:13:02.372Z,31.2
2023-07-11T12:14:02.235Z,31.8
2023-07-11T12:15:02.286Z,31.8
2023-07-11T12:16:02.011Z,31.7
2023-07-11T12:17:02.028Z,31.9
2023-07-11T12:18:01.945Z,31.9
2023-07-11T12:19:01.884Z,31.7
2023-07-11T12:20:01.938Z,30.9
2023-07-11T12:21:01.296Z,30.8
2023-07-11T12:22:02.341Z,30.8
2023-07-11T12:23:08.625Z,30.5
2023-07-11T12:24:26.138Z,30.5
2023-07-11T12:25:01.762Z,29.8
2023-07-11T12:26:01.759Z,30.6
2023-07-11T12:27:01.638Z,31
2023-07-11T12:28:01.785Z,31.1
2023-07-11T12:29:01.787Z,31.1
2023-07-11T12:30:01.705Z,31.2
2023-07-11T12:31:01.821Z,31.1
2023-07-11T12:32:01.933Z,30.9
2023-07-11T12:33:01.825Z,30.4
2023-07-11T12:34:01.732Z,30.7
2023-07-11T12:35:01.796Z,30.9
2023-07-11T12:36:01.674Z,30.5
2023-07-11T12:37:03.171Z,30
2023-07-11T12:38:02.410Z,29.8
2023-07-11T12:39:01.341Z,29.9
2023-07-11T12:40:02.328Z,30.3
2023-07-11T12:41:02.230Z,31
2023-07-11T12:42:02.280Z,31
2023-07-11T12:43:02.136Z,30.2
2023-07-11T12:45:02.448Z,31.1
2023-07-11T12:46:01.448Z,31.2
2023-07-11T12:47:01.354Z,31.5
2023-07-11T12:48:01.332Z,31.4
2023-07-11T12:49:02.277Z,31.6
2023-07-11T12:50:02.325Z,31.6
2023-07-11T12:51:02.193Z,31.2
2023-07-11T12:52:02.146Z,31.6
2023-07-11T12:53:02.099Z,31.5
2023-07-11T12:54:02.071Z,31
2023-07-11T12:55:02.056Z,30.6
2023-07-11T12:56:01.975Z,30.4
2023-07-11T12:57:01.948Z,30.5
2023-07-11T12:58:01.929Z,30.8
2023-07-11T12:59:01.826Z,30.9
2023-07-11T13:00:01.968Z,31.3
2023-07-11T13:01:01.855Z,31.5
2023-07-11T13:02:01.942Z,31.6
2023-07-11T13:03:01.981Z,31.6
2023-07-11T13:04:01.912Z,31.6
2023-07-11T13:05:02.015Z,31.3
2023-07-11T13:06:15.992Z,30.8
2023-07-11T13:07:01.593Z,30.7
2023-07-11T13:08:01.513Z,30.8
2023-07-11T13:09:01.455Z,30.5
2023-07-11T13:10:01.494Z,30.4
2023-07-11T13:11:01.329Z,30.6
2023-07-11T13:12:02.247Z,30.9
2023-07-11T13:13:02.220Z,30.6
2023-07-11T13:14:02.194Z,31
2023-07-11T13:15:02.255Z,31.6
2023-07-11T13:16:01.982Z,31.7
2023-07-11T13:17:01.921Z,31.5
2023-07-11T13:18:01.904Z,30.7
2023-07-11T13:19:01.815Z,30.4
2023-07-11T13:20:01.769Z,30.4
2023-07-11T13:21:01.804Z,30.9
2023-07-11T13:22:01.609Z,30.8
2023-07-11T13:23:01.565Z,30.5
2023-07-11T13:24:01.547Z,30.3
2023-07-11T13:25:01.481Z,31
2023-07-11T13:26:01.581Z,31.1
2023-07-11T13:27:01.361Z,30.3
2023-07-11T13:28:01.293Z,31.1
2023-07-11T13:29:02.254Z,30.1